sensor_id;sensor_type;location;lat;lon;timestamp;pressure;altitude;pressure_sealevel;temperature;humidity
6599;BME280;3335;43.198;27.918;2023-03-23T00:00:53;149344.00;;;8.31;100.00
6599;BME280;3335;43.198;27.918;2023-03-23T00:03:20;149335.19;;;8.27;100.00
6599;BME280;3335;43.198;27.918;2023-03-23T00:05:50;149351.47;;;8.34;100.00
6599;BME280;3335;43.198;27.918;2023-03-23T00:08:18;149341.50;;;8.30;100.00
6599;BME280;3335;43.198;27.918;2023-03-23T00:10:48;149316.50;;;8.20;100.00
6599;BME280;3335;43.198;27.918;2023-03-23T00:13:18;149299.03;;;8.13;100.00
6599;BME280;3335;43.198;27.918;2023-03-23T00:15:46;149323.97;;;8.23;100.00
6599;BME280;3335;43.198;27.918;2023-03-23T00:18:14;149329.00;;;8.25;100.00
6599;BME280;3335;43.198;27.918;2023-03-23T00:20:49;149284.09;;;8.07;100.00
6599;BME280;3335;43.198;27.918;2023-03-23T00:23:17;149286.59;;;8.08;100.00
6599;BME280;3335;43.198;27.918;2023-03-23T00:25:50;149294.06;;;8.11;100.00
6599;BME280;3335;43.198;27.918;2023-03-23T00:28:19;149296.56;;;8.12;100.00
6599;BME280;3335;43.198;27.918;2023-03-23T00:30:54;149281.59;;;8.06;100.00
6599;BME280;3335;43.198;27.918;2023-03-23T00:33:22;149296.56;;;8.12;100.00
6599;BME280;3335;43.198;27.918;2023-03-23T00:35:50;149301.53;;;8.14;100.00
6599;BME280;3335;43.198;27.918;2023-03-23T00:38:18;149299.03;;;8.13;100.00
6599;BME280;3335;43.198;27.918;2023-03-23T00:40:45;149291.56;;;8.10;100.00
6599;BME280;3335;43.198;27.918;2023-03-23T00:43:14;149286.59;;;8.08;100.00
6599;BME280;3335;43.198;27.918;2023-03-23T00:45:42;149249.19;;;7.93;100.00
6599;BME280;3335;43.198;27.918;2023-03-23T00:48:10;149276.59;;;8.04;100.00
6599;BME280;3335;43.198;27.918;2023-03-23T00:50:39;149267.88;;;8.00;100.00
6599;BME280;3335;43.198;27.918;2023-03-23T00:53:07;149287.81;;;8.08;100.00
6599;BME280;3335;43.198;27.918;2023-03-23T00:55:34;149277.84;;;8.04;100.00
6599;BME280;3335;43.198;27.918;2023-03-23T00:58:01;149265.38;;;7.99;100.00
6599;BME280;3335;43.198;27.918;2023-03-23T01:00:28;149289.06;;;8.09;100.00
6599;BME280;3335;43.198;27.918;2023-03-23T01:02:55;149291.56;;;8.10;100.00
6599;BME280;3335;43.198;27.918;2023-03-23T01:05:22;149270.38;;;8.01;100.00
6599;BME280;3335;43.198;27.918;2023-03-23T01:07:49;149264.13;;;7.99;100.00
6599;BME280;3335;43.198;27.918;2023-03-23T01:10:17;149282.84;;;8.06;100.00
6599;BME280;3335;43.198;27.918;2023-03-23T01:12:44;149269.13;;;8.01;100.00
6599;BME280;3335;43.198;27.918;2023-03-23T01:15:16;149270.38;;;8.01;100.00
6599;BME280;3335;43.198;27.918;2023-03-23T01:17:44;149286.59;;;8.08;100.00
6599;BME280;3335;43.198;27.918;2023-03-23T01:20:12;149285.38;;;8.07;100.00
6599;BME280;3335;43.198;27.918;2023-03-23T01:22:40;149276.59;;;8.04;100.00
6599;BME280;3335;43.198;27.918;2023-03-23T01:25:08;149286.59;;;8.08;100.00
6599;BME280;3335;43.198;27.918;2023-03-23T01:27:37;149301.53;;;8.14;100.00
6599;BME280;3335;43.198;27.918;2023-03-23T01:30:06;149259.16;;;7.97;100.00
6599;BME280;3335;43.198;27.918;2023-03-23T01:32:33;149294.06;;;8.11;100.00
6599;BME280;3335;43.198;27.918;2023-03-23T01:35:00;149296.56;;;8.12;100.00
6599;BME280;3335;43.198;27.918;2023-03-23T01:37:27;149300.28;;;8.13;100.00
6599;BME280;3335;43.198;27.918;2023-03-23T01:39:55;149282.84;;;8.06;100.00
6599;BME280;3335;43.198;27.918;2023-03-23T01:42:23;149289.06;;;8.09;100.00
6599;BME280;3335;43.198;27.918;2023-03-23T01:47:59;149286.59;;;8.08;100.00
6599;BME280;3335;43.198;27.918;2023-03-23T01:50:28;149276.59;;;8.04;100.00
6599;BME280;3335;43.198;27.918;2023-03-23T01:52:57;149286.59;;;8.08;100.00
6599;BME280;3335;43.198;27.918;2023-03-23T01:55:27;149286.59;;;8.08;100.00
6599;BME280;3335;43.198;27.918;2023-03-23T01:57:55;149289.06;;;8.09;100.00
6599;BME280;3335;43.198;27.918;2023-03-23T02:00:24;149294.06;;;8.11;100.00
6599;BME280;3335;43.198;27.918;2023-03-23T02:02:52;149311.50;;;8.18;100.00
6599;BME280;3335;43.198;27.918;2023-03-23T02:05:26;149331.50;;;8.26;100.00
6599;BME280;3335;43.198;27.918;2023-03-23T02:07:57;149309.06;;;8.17;100.00
6599;BME280;3335;43.198;27.918;2023-03-23T02:10:29;149282.84;;;8.06;100.00
6599;BME280;3335;43.198;27.918;2023-03-23T02:12:57;149294.06;;;8.11;100.00
6599;BME280;3335;43.198;27.918;2023-03-23T02:15:25;149304.03;;;8.15;100.00
6599;BME280;3335;43.198;27.918;2023-03-23T02:17:59;149322.72;;;8.22;100.00
6599;BME280;3335;43.198;27.918;2023-03-23T02:20:54;149321.53;;;8.22;100.00
6599;BME280;3335;43.198;27.918;2023-03-23T02:23:48;149321.53;;;8.22;100.00
6599;BME280;3335;43.198;27.918;2023-03-23T02:26:28;149326.47;;;8.24;100.00
6599;BME280;3335;43.198;27.918;2023-03-23T02:29:09;149327.75;;;8.24;100.00
6599;BME280;3335;43.198;27.918;2023-03-23T02:31:47;149310.25;;;8.17;100.00
6599;BME280;3335;43.198;27.918;2023-03-23T02:34:26;149302.78;;;8.14;100.00
6599;BME280;3335;43.198;27.918;2023-03-23T02:36:58;149331.50;;;8.26;100.00
6599;BME280;3335;43.198;27.918;2023-03-23T02:39:29;149338.97;;;8.29;100.00
6599;BME280;3335;43.198;27.918;2023-03-23T02:42:04;149341.50;;;8.30;100.00
6599;BME280;3335;43.198;27.918;2023-03-23T02:44:33;149344.00;;;8.31;100.00
6599;BME280;3335;43.198;27.918;2023-03-23T02:47:05;149341.50;;;8.30;100.00
6599;BME280;3335;43.198;27.918;2023-03-23T02:49:37;149323.97;;;8.23;100.00
6599;BME280;3335;43.198;27.918;2023-03-23T02:52:11;149344.00;;;8.31;100.00
6599;BME280;3335;43.198;27.918;2023-03-23T02:54:41;149346.47;;;8.32;100.00
6599;BME280;3335;43.198;27.918;2023-03-23T02:57:10;149351.47;;;8.34;100.00
6599;BME280;3335;43.198;27.918;2023-03-23T02:59:38;149360.19;;;8.38;100.00
6599;BME280;3335;43.198;27.918;2023-03-23T03:02:07;149354.00;;;8.35;100.00
6599;BME280;3335;43.198;27.918;2023-03-23T03:04:38;149362.69;;;8.39;100.00
6599;BME280;3335;43.198;27.918;2023-03-23T03:07:17;149386.41;;;8.48;100.00
6599;BME280;3335;43.198;27.918;2023-03-23T03:09:51;149365.22;;;8.40;100.00
6599;BME280;3335;43.198;27.918;2023-03-23T03:12:27;149358.94;;;8.37;100.00
6599;BME280;3335;43.198;27.918;2023-03-23T03:15:02;149391.41;;;8.50;100.00
6599;BME280;3335;43.198;27.918;2023-03-23T03:17:35;149403.88;;;8.55;100.00
6599;BME280;3335;43.198;27.918;2023-03-23T03:20:07;149383.91;;;8.47;100.00
6599;BME280;3335;43.198;27.918;2023-03-23T03:22:38;149388.91;;;8.49;100.00
6599;BME280;3335;43.198;27.918;2023-03-23T03:25:08;149391.41;;;8.50;100.00
6599;BME280;3335;43.198;27.918;2023-03-23T03:27:38;149386.41;;;8.48;100.00
6599;BME280;3335;43.198;27.918;2023-03-23T03:30:09;149381.38;;;8.46;100.00
6599;BME280;3335;43.198;27.918;2023-03-23T03:32:41;149368.91;;;8.41;100.00
6599;BME280;3335;43.198;27.918;2023-03-23T03:35:13;149386.41;;;8.48;100.00
6599;BME280;3335;43.198;27.918;2023-03-23T03:37:41;149388.91;;;8.49;100.00
6599;BME280;3335;43.198;27.918;2023-03-23T03:40:10;149380.19;;;8.46;100.00
6599;BME280;3335;43.198;27.918;2023-03-23T03:42:39;149381.38;;;8.46;100.00
6599;BME280;3335;43.198;27.918;2023-03-23T03:45:11;149391.41;;;8.50;100.00
6599;BME280;3335;43.198;27.918;2023-03-23T03:47:38;149396.38;;;8.52;100.00
6599;BME280;3335;43.198;27.918;2023-03-23T03:50:06;149368.91;;;8.41;100.00
6599;BME280;3335;43.198;27.918;2023-03-23T03:52:36;149376.44;;;8.44;100.00
6599;BME280;3335;43.198;27.918;2023-03-23T03:55:04;149383.91;;;8.47;100.00
6599;BME280;3335;43.198;27.918;2023-03-23T03:57:32;149393.88;;;8.51;100.00
6599;BME280;3335;43.198;27.918;2023-03-23T03:59:59;149376.44;;;8.44;100.00
6599;BME280;3335;43.198;27.918;2023-03-23T04:02:29;149348.97;;;8.33;100.00
6599;BME280;3335;43.198;27.918;2023-03-23T04:04:56;149396.38;;;8.52;100.00
6599;BME280;3335;43.198;27.918;2023-03-23T04:07:23;149346.47;;;8.32;100.00
6599;BME280;3335;43.198;27.918;2023-03-23T04:09:53;149372.66;;;8.43;100.00
6599;BME280;3335;43.198;27.918;2023-03-23T04:12:20;149368.91;;;8.41;100.00
6599;BME280;3335;43.198;27.918;2023-03-23T04:14:47;149375.19;;;8.44;100.00
6599;BME280;3335;43.198;27.918;2023-03-23T04:17:14;149383.91;;;8.47;100.00
6599;BME280;3335;43.198;27.918;2023-03-23T04:19:42;149391.41;;;8.50;100.00
6599;BME280;3335;43.198;27.918;2023-03-23T04:22:10;149381.38;;;8.46;100.00
6599;BME280;3335;43.198;27.918;2023-03-23T04:24:37;149381.38;;;8.46;100.00
6599;BME280;3335;43.198;27.918;2023-03-23T04:27:05;149378.94;;;8.45;100.00
6599;BME280;3335;43.198;27.918;2023-03-23T04:29:32;149391.41;;;8.50;100.00
6599;BME280;3335;43.198;27.918;2023-03-23T04:31:59;149388.91;;;8.49;100.00
6599;BME280;3335;43.198;27.918;2023-03-23T04:34:27;149381.38;;;8.46;100.00
6599;BME280;3335;43.198;27.918;2023-03-23T04:36:58;149391.41;;;8.50;100.00
6599;BME280;3335;43.198;27.918;2023-03-23T04:39:25;149388.91;;;8.49;100.00
6599;BME280;3335;43.198;27.918;2023-03-23T04:41:54;149392.59;;;8.51;100.00
6599;BME280;3335;43.198;27.918;2023-03-23T04:44:22;149390.16;;;8.50;100.00
6599;BME280;3335;43.198;27.918;2023-03-23T04:46:49;149396.38;;;8.52;100.00
6599;BME280;3335;43.198;27.918;2023-03-23T04:49:19;149406.34;;;8.56;100.00
6599;BME280;3335;43.198;27.918;2023-03-23T04:51:47;149411.34;;;8.58;100.00
6599;BME280;3335;43.198;27.918;2023-03-23T04:54:16;149401.38;;;8.54;100.00
6599;BME280;3335;43.198;27.918;2023-03-23T04:56:43;149401.38;;;8.54;100.00
6599;BME280;3335;43.198;27.918;2023-03-23T04:59:10;149413.84;;;8.59;100.00
6599;BME280;3335;43.198;27.918;2023-03-23T05:01:40;149421.31;;;8.62;100.00
6599;BME280;3335;43.198;27.918;2023-03-23T05:04:11;149417.56;;;8.61;100.00
6599;BME280;3335;43.198;27.918;2023-03-23T05:06:42;149421.31;;;8.62;100.00
6599;BME280;3335;43.198;27.918;2023-03-23T05:09:10;149433.78;;;8.67;100.00
6599;BME280;3335;43.198;27.918;2023-03-23T05:11:37;149423.81;;;8.63;100.00
6599;BME280;3335;43.198;27.918;2023-03-23T05:14:05;149443.78;;;8.71;100.00
6599;BME280;3335;43.198;27.918;2023-03-23T05:16:32;149446.28;;;8.72;100.00
6599;BME280;3335;43.198;27.918;2023-03-23T05:19:03;149458.75;;;8.77;100.00
6599;BME280;3335;43.198;27.918;2023-03-23T05:21:30;149461.25;;;8.78;100.00
6599;BME280;3335;43.198;27.918;2023-03-23T05:23:57;149473.72;;;8.84;100.00
6599;BME280;3335;43.198;27.918;2023-03-23T05:26:26;149493.69;;;8.92;100.00
6599;BME280;3335;43.198;27.918;2023-03-23T05:28:54;149503.66;;;8.96;100.00
6599;BME280;3335;43.198;27.918;2023-03-23T05:31:22;149486.16;;;8.89;100.00
6599;BME280;3335;43.198;27.918;2023-03-23T05:33:49;149522.34;;;9.03;100.00
6599;BME280;3335;43.198;27.918;2023-03-23T05:36:17;149536.09;;;9.09;100.00
6599;BME280;3335;43.198;27.918;2023-03-23T05:38:45;149531.13;;;9.07;100.00
6599;BME280;3335;43.198;27.918;2023-03-23T05:41:13;149541.09;;;9.11;100.00
6599;BME280;3335;43.198;27.918;2023-03-23T05:43:40;149556.09;;;9.17;100.00
6599;BME280;3335;43.198;27.918;2023-03-23T05:46:07;149571.03;;;9.23;100.00
6599;BME280;3335;43.198;27.918;2023-03-23T05:48:34;149523.59;;;9.04;100.00
6599;BME280;3335;43.198;27.918;2023-03-23T05:51:02;149558.53;;;9.18;100.00
6599;BME280;3335;43.198;27.918;2023-03-23T05:53:30;149568.53;;;9.22;100.00
6599;BME280;3335;43.198;27.918;2023-03-23T05:56:01;149547.31;;;9.13;100.00
6599;BME280;3335;43.198;27.918;2023-03-23T05:58:28;149552.31;;;9.15;100.00
6599;BME280;3335;43.198;27.918;2023-03-23T06:00:55;149513.63;;;9.00;100.00
6599;BME280;3335;43.198;27.918;2023-03-23T06:03:22;149572.28;;;9.23;100.00
6599;BME280;3335;43.198;27.918;2023-03-23T06:05:49;149569.78;;;9.22;100.00
6599;BME280;3335;43.198;27.918;2023-03-23T06:08:17;149596.00;;;9.33;100.00
6599;BME280;3335;43.198;27.918;2023-03-23T06:10:45;149588.53;;;9.30;100.00
6599;BME280;3335;43.198;27.918;2023-03-23T06:13:13;149576.03;;;9.25;100.00
6599;BME280;3335;43.198;27.918;2023-03-23T06:15:40;149596.00;;;9.33;100.00
6599;BME280;3335;43.198;27.918;2023-03-23T06:18:08;149593.47;;;9.32;100.00
6599;BME280;3335;43.198;27.918;2023-03-23T06:20:36;149556.09;;;9.17;100.00
6599;BME280;3335;43.198;27.918;2023-03-23T06:23:03;149596.00;;;9.33;100.00
6599;BME280;3335;43.198;27.918;2023-03-23T06:25:30;149618.44;;;9.42;100.00
6599;BME280;3335;43.198;27.918;2023-03-23T06:27:58;149619.72;;;9.43;100.00
6599;BME280;3335;43.198;27.918;2023-03-23T06:30:25;149638.41;;;9.50;100.00
6599;BME280;3335;43.198;27.918;2023-03-23T06:32:54;149639.66;;;9.51;100.00
6599;BME280;3335;43.198;27.918;2023-03-23T06:35:22;149628.44;;;9.46;100.00
6599;BME280;3335;43.198;27.918;2023-03-23T06:37:49;149662.13;;;9.60;100.00
6599;BME280;3335;43.198;27.918;2023-03-23T06:40:17;149648.44;;;9.54;100.00
6599;BME280;3335;43.198;27.918;2023-03-23T06:42:45;149659.66;;;9.59;100.00
6599;BME280;3335;43.198;27.918;2023-03-23T06:45:13;149663.38;;;9.60;100.00
6599;BME280;3335;43.198;27.918;2023-03-23T06:47:40;149670.91;;;9.63;100.00
6599;BME280;3335;43.198;27.918;2023-03-23T06:50:07;149660.91;;;9.59;100.00
6599;BME280;3335;43.198;27.918;2023-03-23T06:52:34;149685.84;;;9.70;100.00
6599;BME280;3335;43.198;27.918;2023-03-23T06:55:02;149680.88;;;9.68;100.00
6599;BME280;3335;43.198;27.918;2023-03-23T06:57:29;149689.59;;;9.71;100.00
6599;BME280;3335;43.198;27.918;2023-03-23T06:59:56;149697.06;;;9.74;100.00
6599;BME280;3335;43.198;27.918;2023-03-23T07:02:24;149688.34;;;9.71;100.00
6599;BME280;3335;43.198;27.918;2023-03-23T07:04:51;149703.34;;;9.77;100.00
6599;BME280;3335;43.198;27.918;2023-03-23T07:07:19;149693.38;;;9.73;100.00
6599;BME280;3335;43.198;27.918;2023-03-23T07:09:46;149695.88;;;9.74;100.00
6599;BME280;3335;43.198;27.918;2023-03-23T07:12:13;149715.84;;;9.82;100.00
6599;BME280;3335;43.198;27.918;2023-03-23T07:14:41;149734.53;;;9.89;100.00
6599;BME280;3335;43.198;27.918;2023-03-23T07:17:08;149740.81;;;9.92;100.00
6599;BME280;3335;43.198;27.918;2023-03-23T07:19:36;149754.56;;;9.97;100.00
6599;BME280;3335;43.198;27.918;2023-03-23T07:22:04;149764.53;;;10.01;100.00
6599;BME280;3335;43.198;27.918;2023-03-23T07:24:31;149783.25;;;10.09;100.00
6599;BME280;3335;43.198;27.918;2023-03-23T07:26:58;149808.28;;;10.19;100.00
6599;BME280;3335;43.198;27.918;2023-03-23T07:29:25;149795.75;;;10.14;100.00
6599;BME280;3335;43.198;27.918;2023-03-23T07:31:53;149848.25;;;10.35;100.00
6599;BME280;3335;43.198;27.918;2023-03-23T07:34:20;149859.50;;;10.40;100.00
6599;BME280;3335;43.198;27.918;2023-03-23T07:36:49;149876.97;;;10.47;100.00
6599;BME280;3335;43.198;27.918;2023-03-23T07:39:16;149880.72;;;10.48;100.00
6599;BME280;3335;43.198;27.918;2023-03-23T07:41:43;149820.78;;;10.24;100.00
6599;BME280;3335;43.198;27.918;2023-03-23T07:44:09;149881.97;;;10.49;100.00
6599;BME280;3335;43.198;27.918;2023-03-23T07:46:36;149924.44;;;10.66;100.00
6599;BME280;3335;43.198;27.918;2023-03-23T07:49:04;149910.69;;;10.61;100.00
6599;BME280;3335;43.198;27.918;2023-03-23T07:51:31;149930.72;;;10.69;100.00
6599;BME280;3335;43.198;27.918;2023-03-23T07:54:01;149946.91;;;10.75;100.00
6599;BME280;3335;43.198;27.918;2023-03-23T07:56:30;149988.19;;;10.92;100.00
6599;BME280;3335;43.198;27.918;2023-03-23T07:58:57;150003.13;;;10.98;100.00
6599;BME280;3335;43.198;27.918;2023-03-23T08:01:24;149998.16;;;10.96;100.00
6599;BME280;3335;43.198;27.918;2023-03-23T08:03:51;149975.69;;;10.87;100.00
6599;BME280;3335;43.198;27.918;2023-03-23T08:06:19;150000.69;;;10.97;100.00
6599;BME280;3335;43.198;27.918;2023-03-23T08:08:46;150055.66;;;11.19;100.00
6599;BME280;3335;43.198;27.918;2023-03-23T08:11:15;150046.91;;;11.16;100.00
6599;BME280;3335;43.198;27.918;2023-03-23T08:13:42;150068.16;;;11.24;100.00
6599;BME280;3335;43.198;27.918;2023-03-23T08:16:09;150110.63;;;11.41;100.00
6599;BME280;3335;43.198;27.918;2023-03-23T08:18:36;150103.13;;;11.38;100.00
6599;BME280;3335;43.198;27.918;2023-03-23T08:21:05;150050.63;;;11.17;100.00
6599;BME280;3335;43.198;27.918;2023-03-23T08:23:34;150081.91;;;11.30;100.00
6599;BME280;3335;43.198;27.918;2023-03-23T08:26:02;150078.13;;;11.28;100.00
6599;BME280;3335;43.198;27.918;2023-03-23T08:28:30;150064.38;;;11.23;100.00
6599;BME280;3335;43.198;27.918;2023-03-23T08:30:57;150030.66;;;11.09;100.00
6599;BME280;3335;43.198;27.918;2023-03-23T08:33:24;150023.16;;;11.06;100.00
6599;BME280;3335;43.198;27.918;2023-03-23T08:35:55;150013.16;;;11.02;100.00
6599;BME280;3335;43.198;27.918;2023-03-23T08:38:22;149968.16;;;10.84;100.00
6599;BME280;3335;43.198;27.918;2023-03-23T08:40:50;149970.66;;;10.85;100.00
6599;BME280;3335;43.198;27.918;2023-03-23T08:43:17;149975.69;;;10.87;100.00
6599;BME280;3335;43.198;27.918;2023-03-23T08:45:45;149975.69;;;10.87;100.00
6599;BME280;3335;43.198;27.918;2023-03-23T08:48:13;149966.91;;;10.83;100.00
6599;BME280;3335;43.198;27.918;2023-03-23T08:50:40;149938.19;;;10.72;100.00
6599;BME280;3335;43.198;27.918;2023-03-23T08:53:07;149943.22;;;10.74;100.00
6599;BME280;3335;43.198;27.918;2023-03-23T08:55:34;149986.91;;;10.91;100.00
6599;BME280;3335;43.198;27.918;2023-03-23T08:58:01;150020.66;;;11.05;100.00
6599;BME280;3335;43.198;27.918;2023-03-23T09:00:29;150020.66;;;11.05;100.00
6599;BME280;3335;43.198;27.918;2023-03-23T09:02:57;150064.38;;;11.23;100.00
6599;BME280;3335;43.198;27.918;2023-03-23T09:05:26;150088.13;;;11.32;100.00
6599;BME280;3335;43.198;27.918;2023-03-23T09:07:56;150110.63;;;11.41;100.00
6599;BME280;3335;43.198;27.918;2023-03-23T09:10:25;150146.88;;;11.56;100.00
6599;BME280;3335;43.198;27.918;2023-03-23T09:12:53;150139.41;;;11.53;100.00
6599;BME280;3335;43.198;27.918;2023-03-23T09:15:21;150164.41;;;11.63;100.00
6599;BME280;3335;43.198;27.918;2023-03-23T09:17:50;150119.41;;;11.45;100.00
6599;BME280;3335;43.198;27.918;2023-03-23T09:20:22;150171.88;;;11.66;100.00
6599;BME280;3335;43.198;27.918;2023-03-23T09:22:51;150159.38;;;11.61;100.00
6599;BME280;3335;43.198;27.918;2023-03-23T09:25:19;150169.38;;;11.65;100.00
6599;BME280;3335;43.198;27.918;2023-03-23T09:27:49;150131.88;;;11.50;100.00
6599;BME280;3335;43.198;27.918;2023-03-23T09:30:18;150168.13;;;11.65;100.00
6599;BME280;3335;43.198;27.918;2023-03-23T09:32:46;150183.13;;;11.71;100.00
6599;BME280;3335;43.198;27.918;2023-03-23T09:35:14;150190.66;;;11.74;100.00
6599;BME280;3335;43.198;27.918;2023-03-23T09:37:44;150186.94;;;11.72;100.00
6599;BME280;3335;43.198;27.918;2023-03-23T09:40:13;150205.69;;;11.80;100.00
6599;BME280;3335;43.198;27.918;2023-03-23T09:43:01;150205.69;;;11.80;100.00
6599;BME280;3335;43.198;27.918;2023-03-23T09:45:36;150234.47;;;11.92;100.00
6599;BME280;3335;43.198;27.918;2023-03-23T09:51:04;150256.97;;;12.01;100.00
6599;BME280;3335;43.198;27.918;2023-03-23T09:53:39;150231.97;;;11.91;100.00
6599;BME280;3335;43.198;27.918;2023-03-23T09:56:11;150213.22;;;11.83;100.00
6599;BME280;3335;43.198;27.918;2023-03-23T09:58:45;150155.63;;;11.60;100.00
6599;BME280;3335;43.198;27.918;2023-03-23T10:01:17;150180.63;;;11.70;100.00
6599;BME280;3335;43.198;27.918;2023-03-23T10:03:45;150210.72;;;11.82;100.00
6599;BME280;3335;43.198;27.918;2023-03-23T10:06:16;150215.69;;;11.84;100.00
6599;BME280;3335;43.198;27.918;2023-03-23T10:08:48;150235.72;;;11.92;100.00
6599;BME280;3335;43.198;27.918;2023-03-23T10:11:24;150255.72;;;12.00;100.00
6599;BME280;3335;43.198;27.918;2023-03-23T10:14:10;150310.72;;;12.22;100.00
6599;BME280;3335;43.198;27.918;2023-03-23T10:16:44;150358.25;;;12.42;100.00
6599;BME280;3335;43.198;27.918;2023-03-23T10:19:20;150382.03;;;12.51;100.00
6599;BME280;3335;43.198;27.918;2023-03-23T10:21:50;150404.56;;;12.60;100.00
6599;BME280;3335;43.198;27.918;2023-03-23T10:24:21;150556.00;;;13.22;100.00
6599;BME280;3335;43.198;27.918;2023-03-23T10:26:58;150562.28;;;13.24;100.00
6599;BME280;3335;43.198;27.918;2023-03-23T10:29:29;150579.78;;;13.31;100.00
6599;BME280;3335;43.198;27.918;2023-03-23T10:31:59;150651.16;;;13.60;100.00
6599;BME280;3335;43.198;27.918;2023-03-23T10:34:31;150663.66;;;13.65;100.00
6599;BME280;3335;43.198;27.918;2023-03-23T10:37:03;150638.63;;;13.55;100.00
6599;BME280;3335;43.198;27.918;2023-03-23T10:39:40;150573.56;;;13.29;100.00
6599;BME280;3335;43.198;27.918;2023-03-23T10:42:08;150576.06;;;13.30;100.00
6599;BME280;3335;43.198;27.918;2023-03-23T10:44:35;150525.94;;;13.09;100.00
6599;BME280;3335;43.198;27.918;2023-03-23T10:47:04;150505.94;;;13.01;100.00
6599;BME280;3335;43.198;27.918;2023-03-23T10:49:36;150452.09;;;12.80;100.00
6599;BME280;3335;43.198;27.918;2023-03-23T10:52:12;150487.13;;;12.94;100.00
6599;BME280;3335;43.198;27.918;2023-03-23T10:54:56;150400.84;;;12.59;100.00
6599;BME280;3335;43.198;27.918;2023-03-23T10:57:24;150397.06;;;12.57;100.00
6599;BME280;3335;43.198;27.918;2023-03-23T10:59:59;150410.84;;;12.63;100.00
6599;BME280;3335;43.198;27.918;2023-03-23T11:02:27;150422.09;;;12.67;100.00
6599;BME280;3335;43.198;27.918;2023-03-23T11:04:57;150414.56;;;12.64;100.00
6599;BME280;3335;43.198;27.918;2023-03-23T11:07:28;150394.53;;;12.56;100.00
6599;BME280;3335;43.198;27.918;2023-03-23T11:10:05;150373.28;;;12.48;100.00
6599;BME280;3335;43.198;27.918;2023-03-23T11:12:34;150417.06;;;12.65;100.00
6599;BME280;3335;43.198;27.918;2023-03-23T11:15:22;150448.38;;;12.78;100.00
6599;BME280;3335;43.198;27.918;2023-03-23T11:17:57;150468.38;;;12.86;100.00
6599;BME280;3335;43.198;27.918;2023-03-23T11:20:26;150389.56;;;12.54;100.00
6599;BME280;3335;43.198;27.918;2023-03-23T11:22:54;150410.84;;;12.63;100.00
6599;BME280;3335;43.198;27.918;2023-03-23T11:25:23;150405.81;;;12.61;100.00
6599;BME280;3335;43.198;27.918;2023-03-23T11:27:52;150434.59;;;12.73;100.00
6599;BME280;3335;43.198;27.918;2023-03-23T11:30:23;150463.34;;;12.84;100.00
6599;BME280;3335;43.198;27.918;2023-03-23T11:32:54;150400.84;;;12.59;100.00
6599;BME280;3335;43.198;27.918;2023-03-23T11:35:25;150413.28;;;12.64;100.00
6599;BME280;3335;43.198;27.918;2023-03-23T11:37:54;150438.31;;;12.74;100.00
6599;BME280;3335;43.198;27.918;2023-03-23T11:40:24;150435.84;;;12.73;100.00
6599;BME280;3335;43.198;27.918;2023-03-23T11:42:58;150458.38;;;12.82;100.00
6599;BME280;3335;43.198;27.918;2023-03-23T11:45:33;150353.28;;;12.40;100.00
6599;BME280;3335;43.198;27.918;2023-03-23T11:48:19;150385.81;;;12.53;100.00
6599;BME280;3335;43.198;27.918;2023-03-23T11:50:51;150355.75;;;12.41;100.00
6599;BME280;3335;43.198;27.918;2023-03-23T11:53:26;150358.25;;;12.42;100.00
6599;BME280;3335;43.198;27.918;2023-03-23T11:56:14;150333.25;;;12.32;100.00
6599;BME280;3335;43.198;27.918;2023-03-23T11:58:43;150295.72;;;12.16;100.00
6599;BME280;3335;43.198;27.918;2023-03-23T12:01:17;150315.75;;;12.24;100.00
6599;BME280;3335;43.198;27.918;2023-03-23T12:07:12;150385.81;;;12.53;100.00
6599;BME280;3335;43.198;27.918;2023-03-23T12:09:47;150427.06;;;12.69;100.00
6599;BME280;3335;43.198;27.918;2023-03-23T12:12:23;150394.53;;;12.56;100.00
6599;BME280;3335;43.198;27.918;2023-03-23T12:14:59;150300.72;;;12.18;100.00
6599;BME280;3335;43.198;27.918;2023-03-23T12:17:36;150352.03;;;12.39;100.00
6599;BME280;3335;43.198;27.918;2023-03-23T12:20:16;150308.22;;;12.21;100.00
6599;BME280;3335;43.198;27.918;2023-03-23T12:22:55;150289.47;;;12.14;100.00
6599;BME280;3335;43.198;27.918;2023-03-23T12:25:43;150290.75;;;12.14;100.00
6599;BME280;3335;43.198;27.918;2023-03-23T12:28:24;150243.22;;;11.95;100.00
6599;BME280;3335;43.198;27.918;2023-03-23T12:31:00;150200.72;;;11.78;100.00
6599;BME280;3335;43.198;27.918;2023-03-23T12:33:39;150208.19;;;11.81;100.00
6599;BME280;3335;43.198;27.918;2023-03-23T12:36:22;150143.13;;;11.55;100.00
6599;BME280;3335;43.198;27.918;2023-03-23T12:39:32;150123.13;;;11.47;100.00
6599;BME280;3335;43.198;27.918;2023-03-23T12:42:07;150116.91;;;11.44;100.00
6599;BME280;3335;43.198;27.918;2023-03-23T12:44:44;150083.16;;;11.30;100.00
6599;BME280;3335;43.198;27.918;2023-03-23T12:47:30;150050.63;;;11.17;100.00
6599;BME280;3335;43.198;27.918;2023-03-23T12:50:04;150023.16;;;11.06;100.00
6599;BME280;3335;43.198;27.918;2023-03-23T12:52:39;150010.66;;;11.01;100.00
6599;BME280;3335;43.198;27.918;2023-03-23T12:55:17;149950.69;;;10.77;100.00
6599;BME280;3335;43.198;27.918;2023-03-23T12:57:49;149960.69;;;10.81;100.00
6599;BME280;3335;43.198;27.918;2023-03-23T13:00:23;149920.66;;;10.65;100.00
6599;BME280;3335;43.198;27.918;2023-03-23T13:02:56;149885.69;;;10.50;100.00
6599;BME280;3335;43.198;27.918;2023-03-23T13:05:35;149928.19;;;10.68;100.00
6599;BME280;3335;43.198;27.918;2023-03-23T13:08:07;149895.72;;;10.55;100.00
6599;BME280;3335;43.198;27.918;2023-03-23T13:10:39;149900.69;;;10.57;100.00
6599;BME280;3335;43.198;27.918;2023-03-23T13:13:14;149930.72;;;10.69;100.00
6599;BME280;3335;43.198;27.918;2023-03-23T13:16:01;149941.94;;;10.73;100.00
6599;BME280;3335;43.198;27.918;2023-03-23T13:18:37;149968.16;;;10.84;100.00
6599;BME280;3335;43.198;27.918;2023-03-23T13:21:14;150023.16;;;11.06;100.00